Historyczne dane pomiarowe

Dodano dane terminowe – wersja testowa.

Dane z okresu 1951-2019

Wersja bazy: 1.34 [2019-03-16, lista zmian], aktualizacja planowana na 2019-04-15

Dane meteo z obszaru Polski uzyskane na podstawie danych udostępnionych przez Instytut Meteorologii i Gospodarki Wodnej – Państwowy Instytut Badawczy.

 

Wybierz Datę:    

       

TemperaturaWilgotnośćWiatrCiśnienieOpadyŚniegCzas trwania zjawisk
 Stacja t tx tn tng RH VA  wxwx mslp ppp RRR   cm mm wxwxwxwxwxwxwx
1987-08-14 13.0 15.7 9.5 5.7-- 8.0 0.7---- 1.7------------
1987-08-13 13.0 20.3 3.6 1.7-- 3.7 1.7---- 0.4------------
1987-08-12 11.6 17.9 5.7 3.1-- 4.7 4.0---- 0.1------------
1987-08-11 11.1 16.2 7.7 6.5-- 6.0 1.7---- 2.3------------
1987-08-10 13.7 17.2 12.9 12.4-- 8.0 2.7---- 2.6------------
1987-08-09 15.5 21.9 9.7 6.3-- 5.3 3.0---- 13.0------------
1987-08-08 14.4 20.9 6.8 3.3-- 4.3 2.3---- 0.0------------
1987-08-07 12.2 19.0 6.2 4.3-- 4.3 2.7---- 0.0------------
1987-08-06 11.1 12.7 9.3 8.4-- 6.3 3.3---- 0.7------------
1987-08-05 11.8 16.7 7.9 5.8-- 5.7 3.0---- 1.4------------
1987-08-04 13.5 17.0 8.0 6.2-- 6.0 3.0---- 1.4------------
1987-08-03 13.3 17.3 9.6 8.2-- 5.7 3.7---- 0.2------------
1987-08-02 12.2 17.7 9.1 7.7-- 6.3 2.3---- 8.2------------
1987-08-01 14.7 17.5 13.4 12.7-- 7.0 3.7---- 5.0------------
1987-07-31 15.0 18.0 12.7 13.3-- 6.0 3.0---- 2.6------------
1987-07-30 16.1 23.2 11.9 9.1-- 7.0 3.0---- 3.2------------
1987-07-29 13.7 17.6 10.1 7.8-- 6.0 2.0---- 0.0------------
1987-07-28 14.1 17.5 12.1 11.3-- 6.0 4.7---- 0.0------------
1987-07-27 12.8 16.7 9.7 7.8-- 7.0 5.7---- 0.3------------
1987-07-26 13.0 17.0 8.9 6.6-- 2.7 3.0---- 1.6------------
1987-07-25 15.5 19.1 12.5 11.2-- 6.3 2.0---- 0.0------------
1987-07-24 18.3 24.4 14.0 11.8-- 5.0 2.3---- 0.0------------
1987-07-23 18.4 24.8 13.1 11.2-- 6.7 0.0---- 12.3------------
1987-07-22 19.1 23.4 15.6 15.3-- 4.7 0.3---- 0.0------------
1987-07-21 18.9 24.5 13.8 10.7-- 5.3 1.3---- 1.8------------
1987-07-20 17.5 23.0 14.0 14.0-- 4.0 1.7---- 0.0------------
1987-07-19 17.7 23.0 15.1 16.1-- 5.0 2.3---- 8.3------------
1987-07-18 21.0 24.3 17.2 16.8-- 4.3 1.7---- 0.9------------
1987-07-17 19.1 25.8 15.5 14.4-- 5.3 4.3---- 19.2------------
1987-07-16 18.8 24.7 13.1 11.8-- 5.3 2.3---- 0.0------------
1987-07-15 17.9 22.4 11.1 7.1-- 3.0 3.3---- 0.0------------
1987-07-14 16.5 21.2 9.0 5.5-- 3.7 0.7---- 0.0------------
1987-07-13 15.0 19.0 10.1 8.2-- 6.3 2.3---- 0.0------------
1987-07-12 16.3 18.6 15.1 14.3-- 7.3 6.3---- 22.6------------
1987-07-11 14.0 19.0 10.1 6.6-- 4.3 3.3---- 32.2------------
1987-07-10 14.2 18.0 9.1 6.6-- 4.7 4.7---- 0.0------------
1987-07-09 15.7 20.1 13.6 5.1-- 5.3 6.0---- 3.0------------
1987-07-08 20.2 27.2 15.1 10.2-- 3.3 3.7---- 7.4------------
1987-07-07 21.0 27.2 13.0 7.3-- 0.0 2.7---- 0.0------------
1987-07-06 19.1 25.3 11.0 5.5-- 0.0 1.3---- 0.0------------
1987-07-05 16.7 22.2 8.7 6.4-- 1.3 0.7---- 0.0------------
1987-07-04 17.4 22.2 10.7 6.7-- 3.0 3.3---- 0.0------------
1987-07-03 17.8 22.6 11.3 8.1-- 2.0 0.0---- 0.0------------
1987-07-02 17.9 22.8 11.2 8.2-- 2.0 2.7---- 0.0------------
1987-07-01 21.8 29.7 19.1 14.9-- 5.7 2.0---- 9.1------------
1987-06-30 24.8 30.2 17.9 14.3-- 5.7 2.0---- 0.0------------
1987-06-29 18.8 25.9 11.2 7.1-- 5.7 2.0---- 0.3------------
1987-06-28 17.2 20.2 13.6 9.7-- 4.7 1.7---- 0.0------------
1987-06-27 16.7 21.2 13.7 11.1-- 3.3 3.7---- 0.1------------
1987-06-26 14.7 21.6 10.1 7.7-- 6.3 2.0---- 0.4------------
1987-06-25 13.6 16.5 10.3 9.4-- 6.3 1.3---- 0.0------------
1987-06-24 13.8 18.7 10.0 8.1-- 5.7 2.7---- 1.6------------
1987-06-23 14.4 19.3 11.3 9.1-- 5.7 1.0---- 1.3------------
1987-06-22 14.1 16.2 12.8 12.6-- 7.0 2.0---- 0.9------------
1987-06-21 16.3 23.0 12.6 8.3-- 6.0 2.0---- 1.1------------
1987-06-20 15.3 20.5 9.3 5.6-- 5.0 1.7---- 1.6------------
1987-06-19 12.2 16.5 9.1 8.2-- 6.7 2.0---- 0.1------------
1987-06-18 10.3 15.2 6.4 7.2-- 5.7 4.0---- 5.0------------
1987-06-17 11.6 14.9 10.0 8.7-- 6.3 4.3---- 0.0------------
1987-06-16 11.0 20.2 8.5 8.4-- 7.3 3.0---- 0.5------------
437.9 ms

 

Źródłem pochodzenia danych jest Instytut Meteorologii i Gospodarki Wodnej – Państwowy Instytut Badawczy. Dane Instytutu Meteorologii i Gospodarki Wodnej – Państwowego Instytutu Badawczego zostały przetworzone.

Dane źródłowe można odnaleźć na stronie https://dane.imgw.pl